createdAt,value
2022-10-14T00:00:14.812Z,86.63330078
2022-10-14T00:01:45.711Z,86.73095703
2022-10-14T00:02:46.146Z,86.8347168
2022-10-14T00:03:46.661Z,86.93847656
2022-10-14T00:04:47.090Z,86.93847656
2022-10-14T00:05:47.670Z,86.93847656
2022-10-14T00:06:48.169Z,86.93847656
2022-10-14T00:07:48.673Z,86.93847656
2022-10-14T00:08:50.081Z,86.73095703
2022-10-14T00:09:50.872Z,86.73095703
2022-10-14T00:10:51.375Z,86.8347168
2022-10-14T00:11:51.948Z,86.8347168
2022-10-14T00:12:52.461Z,86.8347168
2022-10-14T00:13:52.972Z,86.8347168
2022-10-14T00:14:53.492Z,86.73095703
2022-10-14T00:15:53.983Z,86.73095703
2022-10-14T00:16:54.484Z,86.73095703
2022-10-14T00:17:55.052Z,86.73095703
2022-10-14T00:18:56.541Z,86.73095703
2022-10-14T00:19:57.073Z,86.63330078
2022-10-14T00:20:57.556Z,86.63330078
2022-10-14T00:21:58.053Z,86.63330078
2022-10-14T00:22:59.593Z,86.52954102
2022-10-14T00:24:01.053Z,86.43188477
2022-10-14T00:25:01.615Z,86.43188477
2022-10-14T00:26:02.079Z,86.52954102
2022-10-14T00:27:02.602Z,86.52954102
2022-10-14T00:28:03.115Z,86.63330078
2022-10-14T00:29:04.564Z,86.73095703
2022-10-14T00:30:05.171Z,86.73095703
2022-10-14T00:31:05.770Z,86.73095703
2022-10-14T00:32:06.243Z,86.63330078
2022-10-14T00:33:06.768Z,86.63330078
2022-10-14T00:34:07.310Z,86.52954102
2022-10-14T00:35:07.814Z,86.63330078
2022-10-14T00:36:08.289Z,86.73095703
2022-10-14T00:37:08.802Z,86.8347168
2022-10-14T00:38:09.318Z,86.73095703
2022-10-14T00:39:10.487Z,86.73095703
2022-10-14T00:40:11.068Z,86.73095703
2022-10-14T00:41:11.569Z,86.73095703
2022-10-14T00:42:13.046Z,86.63330078
2022-10-14T00:43:44.028Z,86.63330078
2022-10-14T00:44:44.504Z,86.63330078
2022-10-14T00:45:45.069Z,86.52954102
2022-10-14T00:46:45.575Z,86.63330078
2022-10-14T00:47:46.127Z,86.63330078
2022-10-14T00:48:47.256Z,86.63330078
2022-10-14T00:49:47.745Z,86.63330078
2022-10-14T00:50:48.232Z,86.52954102
2022-10-14T00:51:48.749Z,86.52954102
2022-10-14T00:52:49.291Z,86.43188477
2022-10-14T00:53:50.593Z,86.43188477
2022-10-14T00:54:51.086Z,86.328125
2022-10-14T00:55:51.531Z,86.22436523
2022-10-14T00:56:52.099Z,86.22436523
2022-10-14T00:57:52.611Z,86.22436523
2022-10-14T00:58:53.807Z,86.22436523
2022-10-14T00:59:54.366Z,86.328125
2022-10-14T01:00:54.869Z,86.328125
2022-10-14T01:01:55.323Z,86.22436523
2022-10-14T01:02:55.870Z,86.22436523
2022-10-14T01:03:56.329Z,86.22436523
2022-10-14T01:04:56.822Z,86.22436523
2022-10-14T01:05:57.324Z,86.22436523
2022-10-14T01:06:57.796Z,86.22436523
2022-10-14T01:07:58.282Z,86.22436523
2022-10-14T01:08:59.786Z,86.328125
2022-10-14T01:10:00.273Z,86.328125
2022-10-14T01:11:00.780Z,86.22436523
2022-10-14T01:12:23.860Z,86.22436523
2022-10-14T01:13:01.824Z,86.328125
2022-10-14T01:14:02.383Z,86.43188477
2022-10-14T01:15:02.868Z,86.43188477
2022-10-14T01:16:03.449Z,86.43188477
2022-10-14T01:17:03.928Z,86.52954102
2022-10-14T01:18:04.462Z,86.43188477
2022-10-14T01:19:05.984Z,86.328125
2022-10-14T01:20:07.299Z,86.22436523
2022-10-14T01:21:07.809Z,86.37084961
2022-10-14T01:22:08.326Z,86.46850586
2022-10-14T01:23:08.832Z,86.57226563
2022-10-14T01:24:09.305Z,86.57226563
2022-10-14T01:25:09.863Z,86.57226563
2022-10-14T01:26:10.370Z,86.46850586
2022-10-14T01:27:10.924Z,86.57226563
2022-10-14T01:28:12.042Z,86.57226563
2022-10-14T01:29:13.270Z,86.46850586
2022-10-14T01:30:44.038Z,86.46850586
2022-10-14T01:31:44.610Z,86.57226563
2022-10-14T01:32:45.127Z,86.57226563
2022-10-14T01:33:45.647Z,86.57226563
2022-10-14T01:34:46.136Z,86.67602539
2022-10-14T01:35:46.647Z,86.57226563
2022-10-14T01:36:47.167Z,86.46850586
2022-10-14T01:37:47.660Z,86.46850586
2022-10-14T01:38:48.827Z,86.46850586
2022-10-14T01:39:49.307Z,86.37084961
2022-10-14T01:40:49.761Z,86.37084961
2022-10-14T01:41:50.547Z,86.37084961
2022-10-14T01:42:51.103Z,86.46850586
2022-10-14T01:43:51.729Z,86.37084961
2022-10-14T01:44:52.251Z,86.37084961
2022-10-14T01:45:52.736Z,86.37084961
2022-10-14T01:46:53.245Z,86.37084961
2022-10-14T01:47:53.792Z,86.26708984
2022-10-14T01:48:55.315Z,86.26708984
2022-10-14T01:49:55.886Z,86.26708984
2022-10-14T01:50:56.394Z,86.26708984
2022-10-14T01:51:56.880Z,86.26708984
2022-10-14T01:52:57.373Z,86.16333008
2022-10-14T01:53:58.630Z,86.06567383
2022-10-14T01:54:59.103Z,85.96191406
2022-10-14T01:55:59.602Z,85.86425781
2022-10-14T01:57:00.109Z,85.86425781
2022-10-14T01:58:00.611Z,85.86425781
2022-10-14T01:59:01.794Z,85.86425781
2022-10-14T02:00:02.338Z,85.86425781
2022-10-14T02:01:03.828Z,85.86425781
2022-10-14T02:02:04.372Z,85.86425781
2022-10-14T02:03:04.825Z,85.96191406
2022-10-14T02:04:05.355Z,85.86425781
2022-10-14T02:05:05.852Z,85.76049805
2022-10-14T02:06:06.409Z,85.76049805
2022-10-14T02:07:06.919Z,85.76049805
2022-10-14T02:08:07.416Z,85.76049805
2022-10-14T02:09:08.793Z,85.76049805
2022-10-14T02:10:09.275Z,85.65673828
2022-10-14T02:11:09.826Z,85.76049805
2022-10-14T02:12:10.350Z,85.76049805
2022-10-14T02:13:10.865Z,85.86425781
2022-10-14T02:14:11.432Z,85.96191406
2022-10-14T02:15:11.929Z,85.86425781
2022-10-14T02:16:42.895Z,85.76049805
2022-10-14T02:17:43.454Z,85.86425781
2022-10-14T02:18:43.957Z,85.86425781
2022-10-14T02:19:45.042Z,85.86425781
2022-10-14T02:20:45.512Z,85.65673828
2022-10-14T02:21:45.996Z,85.65673828
2022-10-14T02:22:46.580Z,85.65673828
2022-10-14T02:23:47.798Z,85.65673828
2022-10-14T02:24:48.364Z,85.76049805
2022-10-14T02:25:48.823Z,85.76049805
2022-10-14T02:26:49.303Z,85.86425781
2022-10-14T02:27:49.799Z,85.96191406
2022-10-14T02:28:50.773Z,85.86425781
2022-10-14T02:29:52.119Z,85.86425781
2022-10-14T02:30:52.631Z,85.86425781
2022-10-14T02:31:53.087Z,85.86425781
2022-10-14T02:32:53.565Z,85.76049805
2022-10-14T02:33:54.088Z,85.76049805
2022-10-14T02:34:54.623Z,85.76049805
2022-10-14T02:35:55.141Z,85.76049805
2022-10-14T02:36:55.678Z,85.76049805
2022-10-14T02:37:56.204Z,85.76049805
2022-10-14T02:38:56.687Z,85.76049805
2022-10-14T02:39:58.092Z,85.65673828
2022-10-14T02:40:58.641Z,85.55908203
2022-10-14T02:41:59.149Z,85.55908203
2022-10-14T02:42:59.647Z,85.35766602
2022-10-14T02:44:00.156Z,85.35766602
2022-10-14T02:45:00.648Z,85.55908203
2022-10-14T02:46:01.162Z,85.65673828
2022-10-14T02:47:01.708Z,85.65673828
2022-10-14T02:48:02.251Z,85.65673828
2022-10-14T02:49:02.697Z,85.65673828
2022-10-14T02:50:04.027Z,85.65673828
2022-10-14T02:51:04.526Z,85.65673828
2022-10-14T02:52:05.060Z,85.76049805
2022-10-14T02:53:05.597Z,85.86425781
2022-10-14T02:54:06.100Z,86.06567383
2022-10-14T02:55:07.286Z,86.26708984
2022-10-14T02:56:07.800Z,86.37084961
2022-10-14T02:57:08.370Z,86.46850586
2022-10-14T02:58:08.897Z,86.57226563
2022-10-14T02:59:09.382Z,86.67602539
2022-10-14T03:00:10.538Z,86.57226563
2022-10-14T03:01:11.058Z,86.37084961
2022-10-14T03:02:11.998Z,86.16333008
2022-10-14T03:03:42.806Z,86.06567383
2022-10-14T03:04:43.294Z,86.06567383
2022-10-14T03:05:43.775Z,86.06567383
2022-10-14T03:06:44.297Z,85.86425781
2022-10-14T03:07:44.773Z,85.86425781
2022-10-14T03:08:45.407Z,85.86425781
2022-10-14T03:09:46.829Z,86.16333008
2022-10-14T03:10:47.350Z,86.46850586
2022-10-14T03:11:47.852Z,86.71264648
2022-10-14T03:12:48.372Z,86.81640625
2022-10-14T03:13:48.893Z,86.9140625
2022-10-14T03:14:49.410Z,87.12158203
2022-10-14T03:15:49.946Z,87.12158203
2022-10-14T03:16:50.634Z,87.21923828
2022-10-14T03:17:51.110Z,87.32299805
2022-10-14T03:18:51.605Z,87.52441406
2022-10-14T03:19:52.841Z,87.52441406
2022-10-14T03:20:53.393Z,87.52441406
2022-10-14T03:21:53.867Z,87.52441406
2022-10-14T03:22:54.368Z,87.42675781
2022-10-14T03:23:54.864Z,87.42675781
2022-10-14T03:24:56.305Z,87.42675781
2022-10-14T03:25:56.841Z,87.42675781
2022-10-14T03:26:57.369Z,87.32299805
2022-10-14T03:27:57.865Z,87.32299805
2022-10-14T03:28:58.408Z,87.21923828
2022-10-14T03:29:59.532Z,87.21923828
2022-10-14T03:31:00.010Z,87.21923828
2022-10-14T03:32:00.521Z,87.32299805
2022-10-14T03:33:01.087Z,87.42675781
2022-10-14T03:34:01.604Z,87.42675781
2022-10-14T03:35:02.090Z,87.52441406
2022-10-14T03:36:02.644Z,87.52441406
2022-10-14T03:37:03.158Z,87.62817383
2022-10-14T03:38:03.660Z,87.72583008
2022-10-14T03:39:04.206Z,87.82958984
2022-10-14T03:40:05.568Z,87.82958984
2022-10-14T03:41:06.132Z,87.82958984
2022-10-14T03:42:06.594Z,87.68920898
2022-10-14T03:43:07.171Z,87.72583008
2022-10-14T03:44:07.713Z,87.62817383
2022-10-14T03:45:08.198Z,87.58544922
2022-10-14T03:46:08.678Z,87.48168945
2022-10-14T03:47:10.020Z,87.28027344
2022-10-14T03:48:10.585Z,87.18261719
2022-10-14T03:49:42.827Z,87.18261719
2022-10-14T03:50:43.304Z,87.18261719
2022-10-14T03:51:43.815Z,87.28027344
2022-10-14T03:52:46.757Z,87.28027344
2022-10-14T03:53:44.865Z,87.28027344
2022-10-14T03:54:46.099Z,87.28027344
2022-10-14T03:55:46.624Z,87.3840332
2022-10-14T03:56:47.127Z,87.28027344
2022-10-14T03:57:47.656Z,87.3840332
2022-10-14T03:58:48.165Z,87.18261719
2022-10-14T03:59:49.316Z,87.07885742
2022-10-14T04:00:49.818Z,86.97509766
2022-10-14T04:02:20.795Z,87.07885742
2022-10-14T04:03:51.337Z,86.97509766
2022-10-14T04:04:51.879Z,86.87744141
2022-10-14T04:05:52.405Z,86.77368164
2022-10-14T04:06:52.926Z,86.67602539
2022-10-14T04:07:53.447Z,86.77368164
2022-10-14T04:08:54.792Z,86.67602539
2022-10-14T04:09:55.793Z,86.57226563
2022-10-14T04:10:56.249Z,86.37084961
2022-10-14T04:11:57.809Z,86.4074707
2022-10-14T04:12:57.358Z,86.46850586
2022-10-14T04:13:57.882Z,86.46850586
2022-10-14T04:14:58.409Z,86.37084961
2022-10-14T04:15:58.887Z,86.06567383
2022-10-14T04:16:59.386Z,85.96191406
2022-10-14T04:17:59.939Z,85.96191406
2022-10-14T04:19:00.529Z,85.76049805
2022-10-14T04:20:01.063Z,85.76049805
2022-10-14T04:21:02.044Z,85.86425781
2022-10-14T04:22:02.535Z,85.86425781
2022-10-14T04:23:03.079Z,85.96191406
2022-10-14T04:24:08.035Z,86.06567383
2022-10-14T04:25:04.828Z,86.06567383
2022-10-14T04:26:05.299Z,85.96191406
2022-10-14T04:27:05.874Z,85.86425781
2022-10-14T04:28:06.371Z,85.86425781
2022-10-14T04:29:06.976Z,85.86425781
2022-10-14T04:30:08.353Z,85.76049805
2022-10-14T04:31:08.848Z,85.76049805
2022-10-14T04:32:09.388Z,85.76049805
2022-10-14T04:33:09.901Z,85.65673828
2022-10-14T04:34:10.839Z,85.65673828
2022-10-14T04:35:41.706Z,85.80322266
2022-10-14T04:36:42.230Z,85.80322266
2022-10-14T04:37:42.721Z,85.80322266
2022-10-14T04:38:43.190Z,85.65673828
2022-10-14T04:39:43.661Z,85.69946289
2022-10-14T04:40:45.126Z,85.65673828
2022-10-14T04:41:45.644Z,85.76049805
2022-10-14T04:42:46.165Z,85.76049805
2022-10-14T04:43:46.679Z,85.76049805
2022-10-14T04:44:47.198Z,85.80322266
2022-10-14T04:45:47.726Z,85.80322266
2022-10-14T04:46:48.253Z,85.90087891
2022-10-14T04:47:48.952Z,86.10229492
2022-10-14T04:48:49.297Z,86.06567383
2022-10-14T04:49:49.810Z,86.10229492
2022-10-14T04:50:51.054Z,85.96191406
2022-10-14T04:51:51.591Z,86.06567383
2022-10-14T04:52:52.127Z,86.16333008
2022-10-14T04:53:52.651Z,86.06567383
2022-10-14T04:54:53.789Z,86.06567383
2022-10-14T04:55:54.476Z,86.06567383
2022-10-14T04:56:54.975Z,85.96191406
2022-10-14T04:57:55.536Z,85.96191406
2022-10-14T04:58:56.073Z,86.06567383
2022-10-14T04:59:57.306Z,85.96191406
2022-10-14T05:00:58.852Z,86.06567383
2022-10-14T05:01:59.421Z,85.96191406
2022-10-14T05:02:59.868Z,85.96191406
2022-10-14T05:04:00.442Z,85.96191406
2022-10-14T05:05:00.981Z,85.96191406
2022-10-14T05:06:01.531Z,85.96191406
2022-10-14T05:07:02.021Z,86.06567383
2022-10-14T05:08:02.538Z,86.16333008
2022-10-14T05:09:03.094Z,86.16333008
2022-10-14T05:10:03.655Z,85.96191406
2022-10-14T05:11:05.084Z,85.86425781
2022-10-14T05:12:05.561Z,85.76049805
2022-10-14T05:13:06.064Z,85.86425781
2022-10-14T05:14:06.568Z,85.86425781
2022-10-14T05:15:07.198Z,85.86425781
2022-10-14T05:16:07.714Z,85.96191406
2022-10-14T05:17:08.185Z,86.06567383
2022-10-14T05:18:08.697Z,86.16333008
2022-10-14T05:19:09.164Z,86.06567383
2022-10-14T05:20:09.640Z,85.96191406
2022-10-14T05:21:41.386Z,85.96191406
2022-10-14T05:22:41.873Z,85.86425781
2022-10-14T05:23:42.382Z,85.86425781
2022-10-14T05:24:42.912Z,85.96191406
2022-10-14T05:25:44.033Z,85.96191406
2022-10-14T05:26:44.654Z,86.06567383
2022-10-14T05:27:45.104Z,86.30981445
2022-10-14T05:28:45.710Z,86.37084961
2022-10-14T05:29:46.212Z,86.37084961
2022-10-14T05:30:47.566Z,86.37084961
2022-10-14T05:31:48.102Z,86.37084961
2022-10-14T05:32:48.650Z,86.37084961
2022-10-14T05:33:49.141Z,86.37084961
2022-10-14T05:34:49.654Z,86.37084961
2022-10-14T05:35:59.224Z,86.37084961
2022-10-14T05:36:50.995Z,86.46850586
2022-10-14T05:37:51.479Z,86.57226563
2022-10-14T05:38:52.002Z,86.67602539
2022-10-14T05:39:52.545Z,86.67602539
2022-10-14T05:40:53.540Z,86.57226563
2022-10-14T05:41:54.034Z,86.67602539
2022-10-14T05:42:54.476Z,86.77368164
2022-10-14T05:43:55.022Z,86.87744141
2022-10-14T05:44:55.556Z,86.87744141
2022-10-14T05:45:56.069Z,86.77368164
2022-10-14T05:46:56.613Z,86.87744141
2022-10-14T05:47:57.084Z,86.97509766
2022-10-14T05:48:57.554Z,86.97509766
2022-10-14T05:49:58.112Z,87.07885742
2022-10-14T05:50:59.575Z,87.18261719
2022-10-14T05:52:00.085Z,87.18261719
2022-10-14T05:53:00.574Z,87.07885742
2022-10-14T05:54:01.099Z,87.07885742
2022-10-14T05:55:02.327Z,87.18261719
2022-10-14T05:56:02.841Z,87.28027344
2022-10-14T05:57:03.382Z,87.28027344
2022-10-14T05:58:03.875Z,87.3840332
2022-10-14T05:59:04.415Z,87.48168945
2022-10-14T06:00:04.950Z,87.48168945
2022-10-14T06:01:06.013Z,87.48168945
2022-10-14T06:02:06.577Z,87.3840332
2022-10-14T06:03:07.156Z,87.28027344
2022-10-14T06:04:07.634Z,87.28027344
2022-10-14T06:05:08.150Z,87.3840332
2022-10-14T06:06:08.633Z,87.3840332
2022-10-14T06:07:09.121Z,87.58544922
2022-10-14T06:08:40.023Z,87.68920898
2022-10-14T06:09:40.506Z,87.68920898
2022-10-14T06:10:41.809Z,87.68920898
2022-10-14T06:11:42.300Z,87.78686523
2022-10-14T06:12:42.829Z,87.78686523
2022-10-14T06:13:43.359Z,87.890625
2022-10-14T06:14:43.937Z,87.98828125
2022-10-14T06:15:44.455Z,87.98828125
2022-10-14T06:16:44.941Z,88.09204102
2022-10-14T06:17:45.452Z,87.98828125
2022-10-14T06:18:47.355Z,87.98828125
2022-10-14T06:19:46.452Z,87.98828125
2022-10-14T06:20:47.831Z,87.98828125
2022-10-14T06:21:48.307Z,87.98828125
2022-10-14T06:22:48.857Z,87.98828125
2022-10-14T06:23:49.348Z,87.98828125
2022-10-14T06:24:49.852Z,87.78686523
2022-10-14T06:25:51.076Z,87.78686523
2022-10-14T06:26:51.544Z,87.78686523
2022-10-14T06:27:52.159Z,87.78686523
2022-10-14T06:28:52.584Z,87.58544922
2022-10-14T06:29:53.108Z,87.78686523
2022-10-14T06:30:54.316Z,87.78686523
2022-10-14T06:31:54.835Z,87.68920898
2022-10-14T06:32:55.388Z,87.78686523
2022-10-14T06:33:55.869Z,87.890625
2022-10-14T06:34:56.379Z,87.98828125
2022-10-14T06:35:56.970Z,88.19580078
2022-10-14T06:37:01.971Z,88.29345703
2022-10-14T06:37:58.012Z,88.19580078
2022-10-14T06:38:58.517Z,88.09204102
2022-10-14T06:39:59.570Z,87.78686523
2022-10-14T06:41:00.111Z,87.78686523
2022-10-14T06:42:01.329Z,87.890625
2022-10-14T06:43:01.851Z,87.98828125
2022-10-14T06:44:02.374Z,87.98828125
2022-10-14T06:45:02.875Z,88.09204102
2022-10-14T06:46:03.409Z,88.09204102
2022-10-14T06:47:03.881Z,88.19580078
2022-10-14T06:48:04.451Z,88.19580078
2022-10-14T06:49:04.944Z,88.19580078
2022-10-14T06:50:05.472Z,88.19580078
2022-10-14T06:51:06.830Z,88.19580078
2022-10-14T06:52:07.311Z,88.19580078
2022-10-14T06:53:07.930Z,88.29345703
2022-10-14T06:54:09.172Z,88.25073242
2022-10-14T06:55:40.638Z,88.25073242
2022-10-14T06:56:41.158Z,88.25073242
2022-10-14T06:57:41.681Z,88.04931641
2022-10-14T06:58:42.240Z,87.95166016
2022-10-14T06:59:42.880Z,87.74414063
2022-10-14T07:00:47.806Z,87.74414063
2022-10-14T07:01:45.925Z,87.64648438
2022-10-14T07:02:46.306Z,87.64648438
2022-10-14T07:03:46.996Z,87.64648438
2022-10-14T07:04:47.499Z,87.64648438
2022-10-14T07:05:48.024Z,87.64648438
2022-10-14T07:06:49.313Z,87.44506836
2022-10-14T07:07:49.905Z,87.54272461
2022-10-14T07:08:50.675Z,87.64648438
2022-10-14T07:09:51.268Z,87.74414063
2022-10-14T07:10:52.635Z,87.74414063
2022-10-14T07:11:53.148Z,87.74414063
2022-10-14T07:12:54.633Z,87.74414063
2022-10-14T07:13:55.111Z,87.54272461
2022-10-14T07:14:55.645Z,87.54272461
2022-10-14T07:15:56.122Z,87.58544922
2022-10-14T07:16:56.668Z,87.64648438
2022-10-14T07:17:57.856Z,87.74414063
2022-10-14T07:18:58.409Z,87.74414063
2022-10-14T07:19:58.921Z,87.84790039
2022-10-14T07:21:00.137Z,87.54272461
2022-10-14T07:22:01.334Z,87.44506836
2022-10-14T07:23:01.879Z,87.44506836
2022-10-14T07:24:02.505Z,87.54272461
2022-10-14T07:25:02.880Z,87.54272461
2022-10-14T07:26:03.417Z,87.34130859
2022-10-14T07:28:04.463Z,87.13989258
2022-10-14T07:29:05.055Z,87.23754883
2022-10-14T07:30:05.481Z,87.13989258
2022-10-14T07:31:05.987Z,87.34130859
2022-10-14T07:32:07.181Z,87.44506836
2022-10-14T07:33:07.740Z,87.34130859
2022-10-14T07:34:39.069Z,87.34130859
2022-10-14T07:35:39.595Z,87.34130859
2022-10-14T07:36:40.040Z,87.54272461
2022-10-14T07:37:40.561Z,87.44506836
2022-10-14T07:38:41.127Z,87.54272461
2022-10-14T07:39:41.641Z,88.25073242
2022-10-14T07:40:42.091Z,88.5559082
2022-10-14T07:41:43.540Z,88.92211914
2022-10-14T07:42:44.107Z,89.22729492
2022-10-14T07:43:44.617Z,89.22729492
2022-10-14T07:44:45.170Z,88.81835938
2022-10-14T07:45:45.663Z,88.41552734
2022-10-14T07:46:46.152Z,87.90893555
2022-10-14T07:47:46.656Z,87.70751953
2022-10-14T07:48:56.777Z,87.40234375
2022-10-14T07:49:47.793Z,87.29858398
2022-10-14T07:50:48.424Z,87.20092773
2022-10-14T07:51:49.625Z,87.29858398
2022-10-14T07:52:50.505Z,87.29858398
2022-10-14T07:53:51.172Z,87.29858398
2022-10-14T07:54:51.738Z,87.09716797
2022-10-14T07:55:53.091Z,86.79199219
2022-10-14T07:56:53.572Z,86.89575195
2022-10-14T07:57:57.706Z,86.99951172
2022-10-14T07:58:58.969Z,87.09716797
2022-10-14T07:59:59.554Z,87.20092773
2022-10-14T08:01:00.143Z,87.09716797
2022-10-14T08:02:01.774Z,86.99951172
2022-10-14T08:03:02.404Z,87.09716797
2022-10-14T08:04:03.031Z,87.09716797
2022-10-14T08:05:25.500Z,87.20092773
2022-10-14T08:06:04.173Z,87.20092773
2022-10-14T08:07:05.060Z,87.15820313
2022-10-14T08:08:06.824Z,86.95678711
2022-10-14T08:09:08.358Z,86.95678711
2022-10-14T08:10:40.247Z,86.95678711
2022-10-14T08:11:41.331Z,87.05444336
2022-10-14T08:12:41.806Z,87.15820313
2022-10-14T08:13:45.255Z,87.15820313
2022-10-14T08:14:42.851Z,87.05444336
2022-10-14T08:15:43.437Z,86.95678711
2022-10-14T08:16:43.976Z,86.95678711
2022-10-14T08:17:44.467Z,86.95678711
2022-10-14T08:18:50.036Z,87.15820313
2022-10-14T08:19:50.654Z,87.26196289
2022-10-14T08:20:51.399Z,87.15820313
2022-10-14T08:21:52.841Z,86.95678711
2022-10-14T08:22:53.324Z,86.85302734
2022-10-14T08:23:53.802Z,86.65161133
2022-10-14T08:24:54.268Z,86.65161133
2022-10-14T08:25:54.844Z,86.65161133
2022-10-14T08:26:55.354Z,86.54785156
2022-10-14T08:27:55.890Z,86.65161133
2022-10-14T08:28:56.462Z,86.54785156
2022-10-14T08:29:56.844Z,86.54785156
2022-10-14T08:30:58.732Z,86.65161133
2022-10-14T08:31:59.835Z,86.75537109
2022-10-14T08:33:00.354Z,86.54785156
2022-10-14T08:34:00.828Z,86.4074707
2022-10-14T08:35:01.283Z,86.4074707
2022-10-14T08:36:01.935Z,86.20605469
2022-10-14T08:37:02.385Z,86.20605469
2022-10-14T08:38:02.873Z,86.4074707
2022-10-14T08:39:03.430Z,86.4074707
2022-10-14T08:40:03.877Z,86.20605469
2022-10-14T08:41:05.145Z,86.20605469
2022-10-14T08:42:06.846Z,86.16333008
2022-10-14T08:43:07.352Z,86.06567383
2022-10-14T08:44:38.350Z,85.96191406
2022-10-14T08:45:38.832Z,85.76049805
2022-10-14T08:46:39.938Z,85.86425781
2022-10-14T08:47:40.480Z,85.96191406
2022-10-14T08:48:40.970Z,85.86425781
2022-10-14T08:49:41.537Z,85.76049805
2022-10-14T08:50:42.576Z,85.45532227
2022-10-14T08:51:43.211Z,85.45532227
2022-10-14T08:52:44.324Z,85.55908203
2022-10-14T08:53:44.834Z,85.6628418
2022-10-14T08:54:45.359Z,85.6628418
2022-10-14T08:55:45.836Z,85.55908203
2022-10-14T08:56:46.347Z,85.55908203
2022-10-14T08:57:46.826Z,85.6628418
2022-10-14T08:58:47.358Z,85.6628418
2022-10-14T08:59:47.849Z,85.6628418
2022-10-14T09:00:48.411Z,85.25390625
2022-10-14T09:01:49.857Z,85.15625
2022-10-14T09:02:50.719Z,85.25390625
2022-10-14T09:03:51.259Z,85.25390625
2022-10-14T09:04:51.717Z,85.15625
2022-10-14T09:05:52.175Z,85.05249023
2022-10-14T09:06:52.670Z,84.95483398
2022-10-14T09:07:53.342Z,85.05249023
2022-10-14T09:08:53.929Z,85.15625
2022-10-14T09:09:54.477Z,84.85107422
2022-10-14T09:10:55.054Z,84.6496582
2022-10-14T09:11:55.531Z,84.34448242
2022-10-14T09:12:55.969Z,84.24682617
2022-10-14T09:13:57.222Z,84.34448242
2022-10-14T09:14:57.781Z,84.54589844
2022-10-14T09:15:58.363Z,84.44824219
2022-10-14T09:16:58.989Z,84.54589844
2022-10-14T09:17:59.390Z,84.6496582
2022-10-14T09:18:59.846Z,84.85107422
2022-10-14T09:20:00.405Z,84.95483398
2022-10-14T09:21:00.924Z,85.05249023
2022-10-14T09:22:02.413Z,84.95483398
2022-10-14T09:23:02.853Z,84.95483398
2022-10-14T09:24:03.325Z,85.15625
2022-10-14T09:25:03.922Z,86.57226563
2022-10-14T09:26:04.447Z,86.93237305
2022-10-14T09:27:04.951Z,87.03613281
2022-10-14T09:28:05.428Z,87.03613281
2022-10-14T09:29:05.930Z,86.63330078
2022-10-14T09:30:06.471Z,86.22436523
2022-10-14T09:31:07.451Z,85.31494141
2022-10-14T09:32:38.903Z,85.01586914
2022-10-14T09:33:42.305Z,84.91210938
2022-10-14T09:34:40.549Z,85.01586914
2022-10-14T09:35:41.062Z,85.01586914
2022-10-14T09:36:41.587Z,85.01586914
2022-10-14T09:37:42.105Z,85.11352539
2022-10-14T09:38:43.103Z,85.11352539
2022-10-14T09:39:43.594Z,85.21728516
2022-10-14T09:40:44.122Z,85.21728516
2022-10-14T09:41:44.623Z,85.51635742
2022-10-14T09:42:46.110Z,85.51635742
2022-10-14T09:43:46.706Z,85.8215332
2022-10-14T09:44:47.210Z,85.8215332
2022-10-14T09:45:47.781Z,85.92529297
2022-10-14T09:46:48.291Z,85.92529297
2022-10-14T09:47:48.815Z,85.92529297
2022-10-14T09:48:49.287Z,85.8215332
2022-10-14T09:49:49.800Z,85.92529297
2022-10-14T09:50:50.626Z,85.92529297
2022-10-14T09:51:51.152Z,86.12670898
2022-10-14T09:52:52.652Z,86.02294922
2022-10-14T09:53:53.139Z,86.02294922
2022-10-14T09:54:53.604Z,86.12670898
2022-10-14T09:55:54.100Z,86.328125
2022-10-14T09:56:54.563Z,86.63330078
2022-10-14T09:57:55.922Z,86.68823242
2022-10-14T09:58:56.397Z,86.28540039
2022-10-14T09:59:56.874Z,85.88256836
2022-10-14T10:00:57.318Z,85.98632813
2022-10-14T10:01:58.360Z,86.08398438
2022-10-14T10:02:58.957Z,86.18774414
2022-10-14T10:04:00.261Z,85.98632813
2022-10-14T10:05:00.569Z,85.88256836
2022-10-14T10:06:01.088Z,85.88256836
2022-10-14T10:07:01.569Z,85.77880859
2022-10-14T10:08:02.144Z,85.98632813
2022-10-14T10:09:02.642Z,86.18774414
2022-10-14T10:10:03.147Z,86.18774414
2022-10-14T10:11:06.635Z,85.57739258
2022-10-14T10:12:04.050Z,84.97314453
2022-10-14T10:13:05.128Z,85.0769043
2022-10-14T10:14:05.553Z,85.47973633
2022-10-14T10:15:06.096Z,85.68115234
2022-10-14T10:16:37.360Z,85.92529297
2022-10-14T10:17:37.840Z,85.8215332
2022-10-14T10:18:39.126Z,86.22436523
2022-10-14T10:19:39.586Z,86.328125
2022-10-14T10:20:40.852Z,86.328125
2022-10-14T10:21:41.347Z,86.52954102
2022-10-14T10:22:42.563Z,86.52954102
2022-10-14T10:23:43.072Z,86.38916016
2022-10-14T10:24:44.332Z,86.59057617
2022-10-14T10:25:44.824Z,86.28540039
2022-10-14T10:26:45.834Z,86.28540039
2022-10-14T10:27:46.299Z,86.38916016
2022-10-14T10:28:46.833Z,86.28540039
2022-10-14T10:29:47.287Z,86.48681641
2022-10-14T10:30:48.664Z,86.79199219
2022-10-14T10:31:49.201Z,86.89575195
2022-10-14T10:32:50.680Z,86.89575195
2022-10-14T10:33:51.255Z,86.59057617
2022-10-14T10:34:51.796Z,86.48681641
2022-10-14T10:35:52.289Z,86.38916016
2022-10-14T10:36:52.806Z,86.08398438
2022-10-14T10:37:53.374Z,86.02294922
2022-10-14T10:38:53.943Z,86.22436523
2022-10-14T10:39:54.421Z,86.22436523
2022-10-14T10:40:54.913Z,86.28540039
2022-10-14T10:41:55.398Z,86.38916016
2022-10-14T10:42:56.612Z,86.28540039
2022-10-14T10:43:57.220Z,85.77880859
2022-10-14T10:44:57.725Z,85.77880859
2022-10-14T10:45:58.276Z,85.88256836
2022-10-14T10:46:58.820Z,85.77880859
2022-10-14T10:47:59.316Z,85.47973633
2022-10-14T10:48:59.831Z,85.27832031
2022-10-14T10:50:00.601Z,85.2355957
2022-10-14T10:51:01.652Z,85.13793945
2022-10-14T10:52:02.233Z,85.03417969
2022-10-14T10:53:03.590Z,84.93041992
2022-10-14T10:54:04.139Z,85.03417969
2022-10-14T10:55:04.606Z,85.13793945
2022-10-14T10:56:05.106Z,85.13793945
2022-10-14T10:57:05.667Z,85.2355957
2022-10-14T10:58:37.697Z,84.63134766
2022-10-14T10:59:38.219Z,84.63134766
2022-10-14T11:00:38.800Z,84.63134766
2022-10-14T11:01:39.411Z,84.32617188
2022-10-14T11:02:40.608Z,84.32617188
2022-10-14T11:03:41.096Z,83.92333984
2022-10-14T11:04:42.132Z,84.02709961
2022-10-14T11:05:42.763Z,84.12475586
2022-10-14T11:06:43.257Z,84.22851563